createdAt,value
2018-10-06T00:00:35.072Z,12.10
2018-10-06T00:03:05.554Z,10.75
2018-10-06T00:05:34.218Z,11.80
2018-10-06T00:08:02.864Z,11.70
2018-10-06T00:10:31.943Z,11.63
2018-10-06T00:13:01.346Z,13.60
2018-10-06T00:15:30.725Z,14.43
2018-10-06T00:17:59.452Z,11.90
2018-10-06T00:20:28.130Z,14.00
2018-10-06T00:22:56.805Z,13.78
2018-10-06T00:25:25.479Z,15.10
2018-10-06T00:27:54.159Z,15.10
2018-10-06T00:30:22.994Z,13.10
2018-10-06T00:32:51.695Z,16.40
2018-10-06T00:35:20.358Z,16.23
2018-10-06T00:37:49.042Z,15.23
2018-10-06T00:40:17.702Z,15.53
2018-10-06T00:42:46.335Z,16.23
2018-10-06T00:45:15.222Z,13.13
2018-10-06T00:47:43.892Z,13.30
2018-10-06T00:50:12.464Z,14.78
2018-10-06T00:52:41.103Z,13.70
2018-10-06T00:55:09.740Z,14.95
2018-10-06T00:57:38.914Z,16.13
2018-10-06T01:00:07.758Z,18.02
2018-10-06T01:02:36.572Z,15.88
2018-10-06T01:05:06.518Z,15.88
2018-10-06T01:07:35.362Z,14.75
2018-10-06T01:10:04.240Z,14.68
2018-10-06T01:12:33.009Z,15.53
2018-10-06T01:15:02.056Z,18.55
2018-10-06T01:17:30.726Z,15.43
2018-10-06T01:19:59.334Z,16.32
2018-10-06T01:22:32.314Z,17.50
2018-10-06T01:25:01.068Z,14.98
2018-10-06T01:27:29.738Z,16.97
2018-10-06T01:29:58.481Z,14.93
2018-10-06T01:32:27.199Z,11.33
2018-10-06T01:34:55.898Z,11.25
2018-10-06T01:37:24.651Z,14.83
2018-10-06T01:39:53.401Z,15.67
2018-10-06T01:42:22.545Z,16.40
2018-10-06T01:44:51.298Z,18.67
2018-10-06T01:47:20.392Z,17.02
2018-10-06T01:49:49.057Z,17.37
2018-10-06T01:52:17.774Z,17.48
2018-10-06T01:54:46.507Z,21.15
2018-10-06T01:57:15.153Z,18.48
2018-10-06T01:59:43.836Z,15.45
2018-10-06T02:02:12.528Z,17.73
2018-10-06T02:04:41.223Z,18.15
2018-10-06T02:07:09.901Z,20.32
2018-10-06T02:09:39.672Z,16.75
2018-10-06T02:12:08.422Z,15.93
2018-10-06T02:14:37.174Z,15.88
2018-10-06T02:17:05.939Z,17.85
2018-10-06T02:19:34.648Z,18.85
2018-10-06T02:22:05.723Z,19.07
2018-10-06T02:24:34.380Z,18.52
2018-10-06T02:27:03.779Z,19.87
2018-10-06T02:29:32.618Z,21.20
2018-10-06T02:32:01.305Z,21.73
2018-10-06T02:34:29.965Z,18.90
2018-10-06T02:36:58.957Z,18.50
2018-10-06T02:39:27.805Z,17.98
2018-10-06T02:41:56.435Z,16.48
2018-10-06T02:45:54.657Z,16.82
2018-10-06T02:48:23.274Z,20.50
2018-10-06T02:50:51.942Z,19.90
2018-10-06T02:53:20.720Z,18.25
2018-10-06T02:55:49.539Z,20.13
2018-10-06T02:58:18.207Z,20.15
2018-10-06T03:00:46.941Z,20.20
2018-10-06T03:03:15.529Z,24.13
2018-10-06T03:05:45.048Z,21.70
2018-10-06T03:08:15.294Z,21.82
2018-10-06T03:10:43.894Z,20.03
2018-10-06T03:13:12.569Z,19.50
2018-10-06T03:15:41.581Z,23.52
2018-10-06T03:18:10.314Z,22.75
2018-10-06T03:20:39.021Z,21.77
2018-10-06T03:23:07.872Z,21.37
2018-10-06T03:25:36.606Z,20.05
2018-10-06T03:28:05.300Z,20.62
2018-10-06T03:30:34.244Z,18.50
2018-10-06T03:33:02.957Z,20.62
2018-10-06T03:35:31.730Z,24.60
2018-10-06T03:38:00.513Z,17.95
2018-10-06T03:40:29.242Z,18.60
2018-10-06T03:42:58.045Z,18.12
2018-10-06T03:45:26.810Z,16.82
2018-10-06T03:47:55.481Z,15.88
2018-10-06T03:50:24.136Z,15.28
2018-10-06T03:52:53.258Z,15.45
2018-10-06T03:55:22.083Z,17.77
2018-10-06T03:57:50.787Z,19.00
2018-10-06T04:00:21.051Z,18.67
2018-10-06T04:02:49.759Z,21.35
2018-10-06T04:05:18.466Z,20.92
2018-10-06T04:07:47.222Z,21.00
2018-10-06T04:10:15.894Z,22.98
2018-10-06T04:12:44.463Z,20.97
2018-10-06T04:15:13.296Z,24.02
2018-10-06T04:17:42.196Z,19.77
2018-10-06T04:20:11.922Z,19.50
2018-10-06T04:22:40.710Z,20.35
2018-10-06T04:25:09.430Z,19.95
2018-10-06T04:27:38.168Z,20.82
2018-10-06T04:30:07.451Z,20.20
2018-10-06T04:32:36.046Z,21.05
2018-10-06T04:35:04.864Z,19.90
2018-10-06T04:37:33.766Z,21.50
2018-10-06T04:40:02.561Z,21.15
2018-10-06T04:42:31.304Z,18.87
2018-10-06T04:45:00.958Z,20.25
2018-10-06T04:47:29.636Z,21.68
2018-10-06T04:50:00.344Z,22.67
2018-10-06T04:52:29.171Z,18.35
2018-10-06T04:54:57.835Z,20.52
2018-10-06T04:57:26.547Z,19.47
2018-10-06T04:59:55.607Z,19.63
2018-10-06T05:02:24.312Z,21.40
2018-10-06T05:04:53.096Z,19.00
2018-10-06T05:07:21.870Z,20.62
2018-10-06T05:09:50.552Z,17.45
2018-10-06T05:12:19.725Z,20.67
2018-10-06T05:14:48.668Z,17.60
2018-10-06T05:17:17.349Z,18.62
2018-10-06T05:19:46.140Z,17.92
2018-10-06T05:22:15.009Z,17.55
2018-10-06T05:24:44.996Z,16.73
2018-10-06T05:27:13.662Z,17.73
2018-10-06T05:29:42.509Z,16.50
2018-10-06T05:32:11.227Z,15.70
2018-10-06T05:34:39.899Z,15.72
2018-10-06T05:37:08.591Z,17.92
2018-10-06T05:39:37.329Z,17.07
2018-10-06T05:42:06.017Z,16.60
2018-10-06T05:44:35.030Z,17.62
2018-10-06T05:47:06.358Z,17.45
2018-10-06T05:49:35.126Z,18.27
2018-10-06T05:52:03.792Z,19.48
2018-10-06T05:54:32.613Z,24.15
2018-10-06T05:57:01.736Z,21.52
2018-10-06T05:59:30.384Z,22.07
2018-10-06T06:01:59.876Z,19.05
2018-10-06T06:04:28.647Z,19.07
2018-10-06T06:06:57.358Z,19.80
2018-10-06T06:09:26.083Z,20.33
2018-10-06T06:11:54.798Z,19.83
2018-10-06T06:14:24.376Z,18.67
2018-10-06T06:16:54.503Z,20.72
2018-10-06T06:19:23.303Z,18.90
2018-10-06T06:21:51.952Z,19.67
2018-10-06T06:24:20.807Z,20.10
2018-10-06T06:26:49.649Z,18.37
2018-10-06T06:29:18.184Z,21.40
2018-10-06T06:31:46.936Z,18.55
2018-10-06T06:34:16.999Z,19.67
2018-10-06T06:36:45.714Z,18.70
2018-10-06T06:39:24.536Z,18.15
2018-10-06T06:41:53.220Z,17.85
2018-10-06T06:44:22.088Z,19.45
2018-10-06T06:46:50.643Z,21.45
2018-10-06T06:49:19.883Z,19.37
2018-10-06T06:51:48.656Z,20.43
2018-10-06T06:54:18.266Z,21.90
2018-10-06T06:56:47.067Z,21.85
2018-10-06T06:59:15.797Z,23.20
2018-10-06T07:01:44.583Z,22.15
2018-10-06T07:04:15.396Z,22.32
2018-10-06T07:06:44.094Z,19.98
2018-10-06T07:09:12.804Z,23.25
2018-10-06T07:11:44.118Z,20.52
2018-10-06T07:14:17.784Z,21.57
2018-10-06T07:18:16.331Z,23.13
2018-10-06T07:20:45.089Z,23.32
2018-10-06T07:23:13.758Z,34.78
2018-10-06T07:25:42.774Z,32.30
2018-10-06T07:28:11.603Z,33.48
2018-10-06T07:30:46.139Z,45.75
2018-10-06T07:33:18.369Z,57.73
2018-10-06T07:35:49.634Z,76.95
2018-10-06T07:38:19.544Z,74.73
2018-10-06T07:42:20.722Z,73.40
2018-10-06T07:44:53.878Z,63.85
2018-10-06T07:47:22.769Z,63.20
2018-10-06T07:49:51.402Z,55.98
2018-10-06T07:52:20.088Z,54.65
2018-10-06T07:54:48.731Z,53.80
2018-10-06T07:57:17.491Z,53.95
2018-10-06T07:59:46.075Z,55.67
2018-10-06T08:02:14.854Z,46.85
2018-10-06T08:04:43.553Z,45.35
2018-10-06T08:07:12.682Z,32.10
2018-10-06T08:09:41.467Z,35.60
2018-10-06T08:12:10.128Z,32.10
2018-10-06T08:14:38.857Z,35.78
2018-10-06T08:17:07.443Z,30.08
2018-10-06T08:19:36.075Z,30.92
2018-10-06T08:25:04.712Z,31.82
2018-10-06T08:27:33.513Z,32.40
2018-10-06T08:30:02.414Z,28.25
2018-10-06T08:32:31.214Z,25.52
2018-10-06T08:34:59.818Z,25.82
2018-10-06T08:38:57.854Z,27.67
2018-10-06T08:41:26.496Z,23.20
2018-10-06T08:43:55.520Z,26.37
2018-10-06T08:46:25.253Z,25.23
2018-10-06T08:48:58.878Z,23.20
2018-10-06T08:51:29.954Z,23.95
2018-10-06T08:53:58.876Z,24.02
2018-10-06T08:56:27.530Z,22.55
2018-10-06T08:58:57.534Z,25.80
2018-10-06T09:01:27.573Z,24.35
2018-10-06T09:03:56.638Z,25.55
2018-10-06T09:06:28.039Z,25.08
2018-10-06T09:08:57.606Z,23.92
2018-10-06T09:11:26.429Z,29.82
2018-10-06T09:13:55.939Z,33.25
2018-10-06T09:16:25.280Z,30.77
2018-10-06T09:18:53.944Z,36.57
2018-10-06T09:21:22.627Z,35.13
2018-10-06T09:23:57.759Z,37.42
2018-10-06T09:26:26.522Z,34.50
2018-10-06T09:28:55.327Z,36.55
2018-10-06T09:31:24.054Z,33.53
2018-10-06T09:33:52.758Z,36.17
2018-10-06T09:36:22.427Z,32.17
2018-10-06T09:38:53.122Z,31.60
2018-10-06T09:41:21.936Z,29.60
2018-10-06T09:43:50.618Z,28.95
2018-10-06T09:46:19.573Z,29.15
2018-10-06T09:48:50.434Z,28.35
2018-10-06T09:51:20.171Z,29.18
2018-10-06T09:53:48.935Z,23.27
2018-10-06T09:56:17.658Z,23.05
2018-10-06T09:58:47.004Z,22.13
2018-10-06T10:01:21.039Z,21.27
2018-10-06T10:03:55.858Z,25.23
2018-10-06T10:06:24.632Z,27.42
2018-10-06T10:08:53.602Z,33.02
2018-10-06T10:11:22.707Z,30.32
2018-10-06T10:13:51.860Z,35.63
2018-10-06T10:16:20.780Z,38.45
2018-10-06T10:18:49.472Z,41.25
2018-10-06T10:21:22.616Z,40.45
2018-10-06T10:23:51.413Z,38.92
2018-10-06T10:26:20.058Z,38.00
2018-10-06T10:28:48.845Z,37.30
2018-10-06T10:31:17.651Z,36.55
2018-10-06T10:33:46.302Z,36.77
2018-10-06T10:36:15.012Z,33.88
2018-10-06T10:38:43.709Z,29.87
2018-10-06T10:41:12.462Z,24.82
2018-10-06T10:43:41.384Z,18.27
2018-10-06T10:46:10.097Z,21.65
2018-10-06T10:48:39.682Z,18.00
2018-10-06T10:51:12.411Z,20.77
2018-10-06T10:53:45.780Z,13.53
2018-10-06T10:56:18.406Z,17.07
2018-10-06T10:58:47.239Z,16.20
2018-10-06T11:01:16.043Z,17.10
2018-10-06T11:03:45.095Z,16.80
2018-10-06T11:06:13.758Z,14.83
2018-10-06T11:08:42.447Z,14.93
2018-10-06T11:11:11.101Z,15.97
2018-10-06T11:13:39.879Z,15.00
2018-10-06T11:20:46.214Z,18.60
2018-10-06T11:23:15.002Z,17.80
2018-10-06T11:25:43.670Z,19.17
2018-10-06T11:28:12.452Z,17.27
2018-10-06T11:30:41.122Z,18.23
2018-10-06T11:33:10.317Z,18.03
2018-10-06T11:35:39.010Z,13.27
2018-10-06T11:38:07.851Z,13.48
2018-10-06T11:40:36.466Z,14.33
2018-10-06T11:43:05.237Z,14.90
2018-10-06T11:45:33.909Z,15.30
2018-10-06T11:48:02.586Z,16.53
2018-10-06T11:50:31.280Z,14.80
2018-10-06T11:52:59.976Z,16.00
2018-10-06T11:55:28.639Z,16.40
2018-10-06T11:57:57.272Z,14.33
2018-10-06T12:01:55.531Z,15.43
2018-10-06T12:04:24.450Z,16.20
2018-10-06T12:06:53.116Z,14.23
2018-10-06T12:09:23.981Z,15.40
2018-10-06T12:11:52.747Z,16.90
2018-10-06T12:14:21.466Z,14.93
2018-10-06T12:16:50.261Z,13.98
2018-10-06T12:19:19.147Z,14.47
2018-10-06T12:21:48.286Z,15.32
2018-10-06T12:24:17.123Z,16.52
2018-10-06T12:26:45.859Z,14.47
2018-10-06T12:29:14.672Z,15.90
2018-10-06T12:31:43.452Z,12.30
2018-10-06T12:34:12.320Z,15.55
2018-10-06T12:36:41.030Z,15.35
2018-10-06T12:39:09.839Z,16.27
2018-10-06T12:41:38.522Z,15.60
2018-10-06T12:44:07.302Z,14.57
2018-10-06T12:46:35.982Z,14.18
2018-10-06T12:49:04.846Z,15.00
2018-10-06T12:51:33.649Z,13.83
2018-10-06T12:54:02.319Z,15.60
2018-10-06T12:56:31.228Z,15.90
2018-10-06T12:59:00.064Z,14.33
2018-10-06T13:01:28.928Z,15.43
2018-10-06T13:03:57.834Z,14.68
2018-10-06T13:06:26.738Z,14.00
2018-10-06T13:08:55.423Z,13.38
2018-10-06T13:11:24.122Z,16.80
2018-10-06T13:13:53.002Z,16.45
2018-10-06T13:16:21.671Z,17.67
2018-10-06T13:18:50.457Z,13.75
2018-10-06T13:21:19.153Z,17.20
2018-10-06T13:23:47.987Z,17.65
2018-10-06T13:26:17.017Z,15.63
2018-10-06T13:28:49.124Z,16.12
2018-10-06T13:31:17.854Z,14.07
2018-10-06T13:33:46.624Z,13.63
2018-10-06T13:36:15.286Z,15.32
2018-10-06T13:38:43.951Z,12.47
2018-10-06T13:41:12.845Z,15.83
2018-10-06T13:43:41.453Z,12.47
2018-10-06T13:46:10.259Z,13.60
2018-10-06T13:48:39.178Z,14.93
2018-10-06T13:51:08.072Z,13.15
2018-10-06T13:53:36.829Z,11.40
2018-10-06T13:56:07.074Z,12.40
2018-10-06T13:58:35.892Z,12.50
2018-10-06T14:01:04.744Z,14.87
2018-10-06T14:03:33.489Z,11.63
2018-10-06T14:06:02.301Z,14.73
2018-10-06T14:08:33.696Z,14.80
2018-10-06T14:11:02.384Z,15.05
2018-10-06T14:13:31.074Z,13.57
2018-10-06T14:15:59.801Z,16.67
2018-10-06T14:18:28.423Z,16.07
2018-10-06T14:20:57.127Z,16.80
2018-10-06T14:23:26.599Z,17.17
2018-10-06T14:25:55.229Z,16.37
2018-10-06T14:28:25.220Z,16.52
2018-10-06T14:30:53.907Z,17.75
2018-10-06T14:33:22.569Z,19.05
2018-10-06T14:35:51.541Z,19.10
2018-10-06T14:38:20.283Z,16.20
2018-10-06T14:40:49.015Z,18.75
2018-10-06T14:43:17.741Z,17.55
2018-10-06T14:45:47.590Z,24.50
2018-10-06T14:48:16.401Z,17.85
2018-10-06T14:50:45.083Z,16.77
2018-10-06T14:53:13.826Z,19.62
2018-10-06T14:55:42.542Z,16.15
2018-10-06T14:58:11.315Z,16.62
2018-10-06T15:00:40.584Z,17.00
2018-10-06T15:03:09.323Z,18.80
2018-10-06T15:05:38.437Z,17.20
2018-10-06T15:08:07.757Z,16.73
2018-10-06T15:10:36.686Z,17.90
2018-10-06T15:13:05.410Z,16.60
2018-10-06T15:15:34.116Z,17.62
2018-10-06T15:18:06.195Z,18.17
2018-10-06T15:20:36.279Z,19.48
2018-10-06T15:23:06.346Z,18.42
2018-10-06T15:25:34.959Z,14.55
2018-10-06T15:28:06.110Z,16.20
2018-10-06T15:30:34.714Z,14.50
2018-10-06T15:33:03.349Z,15.40
2018-10-06T15:35:32.049Z,14.18
2018-10-06T15:38:00.917Z,18.75
2018-10-06T15:40:29.690Z,19.85
2018-10-06T15:42:58.437Z,20.43
2018-10-06T15:45:27.257Z,18.37
2018-10-06T15:47:55.942Z,17.43
2018-10-06T15:50:24.657Z,15.95
2018-10-06T15:52:53.408Z,12.70
2018-10-06T15:55:22.228Z,14.38
2018-10-06T15:57:50.918Z,12.88
2018-10-06T16:00:19.597Z,14.33
2018-10-06T16:02:48.450Z,15.98
2018-10-06T16:05:17.095Z,14.78
2018-10-06T16:07:45.802Z,12.45
2018-10-06T16:10:14.608Z,15.08
2018-10-06T16:12:43.422Z,16.02
2018-10-06T16:15:12.351Z,17.87
2018-10-06T16:17:41.175Z,11.73
2018-10-06T16:20:09.890Z,10.72
2018-10-06T16:22:38.571Z,9.97
2018-10-06T16:25:07.245Z,9.05
2018-10-06T16:27:35.936Z,9.73
2018-10-06T16:30:05.107Z,10.40
2018-10-06T16:32:33.771Z,11.18
2018-10-06T16:35:02.497Z,11.83
2018-10-06T16:37:31.193Z,13.08
2018-10-06T16:39:59.965Z,14.55
2018-10-06T16:42:28.771Z,13.78
2018-10-06T16:44:57.623Z,15.50
2018-10-06T16:47:26.288Z,17.65
2018-10-06T16:49:55.085Z,18.67
2018-10-06T16:52:23.822Z,17.00
2018-10-06T16:54:52.606Z,22.80
2018-10-06T16:57:21.308Z,24.23
2018-10-06T16:59:49.938Z,20.65
2018-10-06T17:02:18.634Z,16.87
2018-10-06T17:04:47.482Z,16.27
2018-10-06T17:07:16.297Z,15.48
2018-10-06T17:09:45.022Z,19.20
2018-10-06T17:12:13.806Z,16.52
2018-10-06T17:14:42.621Z,20.05
2018-10-06T17:17:11.354Z,21.30
2018-10-06T17:19:40.012Z,19.50
2018-10-06T17:22:08.766Z,20.37
2018-10-06T17:24:37.504Z,17.92
2018-10-06T17:27:06.606Z,17.37
2018-10-06T17:29:35.865Z,15.13
2018-10-06T17:32:04.622Z,15.68
2018-10-06T17:34:33.459Z,17.12
2018-10-06T17:37:02.202Z,17.45
2018-10-06T17:39:31.040Z,18.48
2018-10-06T17:41:59.980Z,22.75
2018-10-06T17:44:29.073Z,19.00
2018-10-06T17:46:57.679Z,18.40
2018-10-06T17:49:26.586Z,16.87
2018-10-06T17:51:55.487Z,15.70
2018-10-06T17:54:24.244Z,15.93
2018-10-06T17:56:53.067Z,14.35
2018-10-06T17:59:21.724Z,15.63
2018-10-06T18:01:50.413Z,17.50
2018-10-06T18:04:19.147Z,16.07
2018-10-06T18:06:47.999Z,16.07
2018-10-06T18:09:16.880Z,13.35
2018-10-06T18:11:45.616Z,14.33
2018-10-06T18:14:14.336Z,14.23
2018-10-06T18:16:43.010Z,16.30
2018-10-06T18:19:11.746Z,16.93
2018-10-06T18:21:40.614Z,12.87
2018-10-06T18:24:09.238Z,14.47
2018-10-06T18:26:38.019Z,16.80
2018-10-06T18:29:06.935Z,15.93
2018-10-06T18:31:35.573Z,14.67
2018-10-06T18:34:04.302Z,12.63
2018-10-06T18:36:33.263Z,13.53
2018-10-06T18:39:01.937Z,13.90
2018-10-06T18:41:30.927Z,16.17
2018-10-06T18:43:59.810Z,13.98
2018-10-06T18:46:29.366Z,13.15
2018-10-06T18:48:58.325Z,16.25
2018-10-06T18:51:27.162Z,16.02
2018-10-06T18:53:56.007Z,14.57
2018-10-06T18:56:24.893Z,15.10
2018-10-06T18:58:53.551Z,13.75
2018-10-06T19:01:22.233Z,13.25
2018-10-06T19:03:51.087Z,14.25
2018-10-06T19:06:19.757Z,16.80
2018-10-06T19:08:48.604Z,16.87
2018-10-06T19:11:17.555Z,13.78
2018-10-06T19:13:46.475Z,18.20
2018-10-06T19:16:15.393Z,14.43
2018-10-06T19:18:44.249Z,14.00
2018-10-06T19:21:13.124Z,13.20
2018-10-06T19:23:41.928Z,11.47
2018-10-06T19:26:10.658Z,12.90
2018-10-06T19:28:39.473Z,13.00
2018-10-06T19:31:08.265Z,11.00
2018-10-06T19:33:37.938Z,12.05
2018-10-06T19:36:07.073Z,12.95
2018-10-06T19:38:35.939Z,16.32
2018-10-06T19:41:04.685Z,14.30
2018-10-06T19:43:33.304Z,12.88
2018-10-06T19:46:02.274Z,15.40
2018-10-06T19:48:31.116Z,14.37
2018-10-06T19:50:59.783Z,15.15
2018-10-06T19:53:28.775Z,13.72
2018-10-06T19:55:57.635Z,16.35
2018-10-06T19:58:26.514Z,14.25
2018-10-06T20:00:55.260Z,12.03
2018-10-06T20:03:24.085Z,15.30
2018-10-06T20:05:52.827Z,11.75
2018-10-06T20:08:22.202Z,11.85
2018-10-06T20:10:51.773Z,13.80
2018-10-06T20:13:20.473Z,10.10
2018-10-06T20:15:49.208Z,12.15
2018-10-06T20:18:18.010Z,10.38
2018-10-06T20:20:48.737Z,12.37
2018-10-06T20:23:20.591Z,10.03
2018-10-06T20:25:49.538Z,10.98
2018-10-06T20:28:18.267Z,15.32
2018-10-06T20:30:48.917Z,13.62
2018-10-06T20:33:17.588Z,13.20
2018-10-06T20:35:46.253Z,12.88
2018-10-06T20:38:15.050Z,13.28
2018-10-06T20:40:43.729Z,13.37
2018-10-06T20:43:13.883Z,11.73
2018-10-06T20:45:42.580Z,12.93
2018-10-06T20:48:11.281Z,13.75
2018-10-06T20:50:40.170Z,12.88
2018-10-06T20:53:08.973Z,10.28
2018-10-06T20:55:39.912Z,12.43
2018-10-06T20:58:08.673Z,13.95
2018-10-06T21:00:37.462Z,14.68
2018-10-06T21:03:06.188Z,13.13
2018-10-06T21:05:34.911Z,12.37
2018-10-06T21:08:05.945Z,11.37
2018-10-06T21:10:34.733Z,10.93
2018-10-06T21:13:03.549Z,11.40
2018-10-06T21:15:32.437Z,11.88
2018-10-06T21:18:01.151Z,12.30
2018-10-06T21:20:31.059Z,13.55
2018-10-06T21:23:04.345Z,11.83
2018-10-06T21:25:39.449Z,15.03
2018-10-06T21:28:11.302Z,14.90
2018-10-06T21:30:40.006Z,14.83
2018-10-06T21:33:08.799Z,17.48
2018-10-06T21:35:37.460Z,15.75
2018-10-06T21:38:06.699Z,14.33
2018-10-06T21:40:35.368Z,13.90
2018-10-06T21:43:04.178Z,15.72
2018-10-06T21:45:32.919Z,15.90
2018-10-06T21:48:04.087Z,17.93
2018-10-06T21:50:32.808Z,15.13
2018-10-06T21:53:02.814Z,15.08
2018-10-06T21:55:32.846Z,13.98
2018-10-06T21:58:01.541Z,13.88
2018-10-06T22:00:30.301Z,14.28
2018-10-06T22:02:58.939Z,13.30
2018-10-06T22:05:27.725Z,14.50
2018-10-06T22:07:56.435Z,14.90
2018-10-06T22:10:25.135Z,14.80
2018-10-06T22:12:56.898Z,14.53
2018-10-06T22:15:25.933Z,16.82
2018-10-06T22:17:54.646Z,13.45
2018-10-06T22:20:23.399Z,19.17
2018-10-06T22:22:52.129Z,16.60
2018-10-06T22:25:20.902Z,15.73
2018-10-06T22:27:49.490Z,14.58
2018-10-06T22:30:18.322Z,14.45
2018-10-06T22:32:47.015Z,13.53
2018-10-06T22:35:15.659Z,14.93
2018-10-06T22:37:44.366Z,16.65
2018-10-06T22:40:13.366Z,17.55
2018-10-06T22:42:42.185Z,15.68
2018-10-06T22:45:10.854Z,14.47
2018-10-06T22:47:40.801Z,16.48
2018-10-06T22:50:09.508Z,17.12
2018-10-06T22:52:38.356Z,13.80
2018-10-06T22:55:07.132Z,14.98
2018-10-06T22:57:35.824Z,15.35
2018-10-06T23:00:04.843Z,16.00
2018-10-06T23:02:33.543Z,18.43
2018-10-06T23:05:02.282Z,16.90
2018-10-06T23:07:32.919Z,14.13
2018-10-06T23:10:01.520Z,14.45
2018-10-06T23:12:30.200Z,12.10
2018-10-06T23:14:59.262Z,13.78
2018-10-06T23:17:27.915Z,13.45
2018-10-06T23:19:57.755Z,15.43
2018-10-06T23:22:26.557Z,16.00
2018-10-06T23:24:55.385Z,13.88
2018-10-06T23:27:24.066Z,17.98
2018-10-06T23:29:52.738Z,16.05
2018-10-06T23:32:21.831Z,14.58
2018-10-06T23:34:50.567Z,14.75
2018-10-06T23:37:19.277Z,17.77
2018-10-06T23:39:49.171Z,15.70
2018-10-06T23:42:17.859Z,15.78
2018-10-06T23:44:46.557Z,16.25
2018-10-06T23:47:15.376Z,15.88
2018-10-06T23:49:44.219Z,13.65
2018-10-06T23:52:12.987Z,17.40
2018-10-06T23:54:41.694Z,14.15
2018-10-06T23:57:10.394Z,15.03
2018-10-06T23:59:40.967Z,17.20
